Time;durP1;ratioP1;P1;durP2;ratioP2;P2;SDS_P1;SDS_P2;PMS_P1;PMS_P2;Temp;Humidity;BMP_temperature;BMP_pressure;BME280_temperature;BME280_humidity;BME280_pressure;Samples;Min_cycle;Max_cycle;Signal;HPM_P1;HPM_P2
2021/03/17 00:01:17;;;;;;;4.07;2.45;;;6.30;99.90;;;;;;4984519;28;20569;-82
2021/03/17 00:03:44;;;;;;;6.72;2.80;;;6.20;99.90;;;;;;4975933;28;20256;-83
2021/03/17 00:06:12;;;;;;;5.00;2.28;;;6.30;99.90;;;;;;5002850;28;20220;-83
2021/03/17 00:08:38;;;;;;;5.90;2.08;;;6.20;99.90;;;;;;5000694;28;20212;-84
2021/03/17 00:11:05;;;;;;;3.60;2.10;;;6.10;99.90;;;;;;4999988;28;20252;-84
2021/03/17 00:13:31;;;;;;;4.40;2.30;;;6.30;99.90;;;;;;4993238;28;20221;-83
2021/03/17 00:16:00;;;;;;;3.75;2.08;;;6.20;99.90;;;;;;4985494;28;20223;-82
2021/03/17 00:18:27;;;;;;;4.45;2.15;;;6.40;99.90;;;;;;4992470;28;20261;-83
2021/03/17 00:20:53;;;;;;;5.88;2.50;;;6.30;99.90;;;;;;5001025;28;20267;-84
2021/03/17 00:23:20;;;;;;;4.20;2.40;;;6.20;99.90;;;;;;5000363;28;20213;-83
2021/03/17 00:25:46;;;;;;;4.50;2.78;;;6.30;99.90;;;;;;4998814;28;20213;-82
2021/03/17 00:28:13;;;;;;;5.55;2.50;;;6.40;99.90;;;;;;4993100;28;20321;-82
2021/03/17 00:30:41;;;;;;;4.88;2.70;;;6.40;99.90;;;;;;4977824;28;20253;-83
2021/03/17 00:33:10;;;;;;;4.05;2.55;;;6.30;99.90;;;;;;4993092;28;20670;-83
2021/03/17 00:35:38;;;;;;;3.60;1.95;;;6.20;99.90;;;;;;4987455;28;20255;-83
2021/03/17 00:38:05;;;;;;;3.45;2.05;;;6.30;99.90;;;;;;4991591;28;20292;-82
2021/03/17 00:40:31;;;;;;;4.60;2.42;;;6.50;99.90;;;;;;4997395;28;20293;-83
2021/03/17 00:42:58;;;;;;;4.00;2.22;;;6.60;99.90;;;;;;4997578;28;20235;-83
2021/03/17 00:45:25;;;;;;;4.50;2.63;;;6.50;99.90;;;;;;4998855;28;20328;-83
2021/03/17 00:47:51;;;;;;;4.55;2.40;;;6.20;99.90;;;;;;4998872;28;20268;-83
2021/03/17 00:50:19;;;;;;;5.47;2.70;;;6.30;99.90;;;;;;5000032;28;20293;-83
2021/03/17 00:52:46;;;;;;;4.22;2.50;;;6.30;99.90;;;;;;4997083;28;20284;-83
2021/03/17 00:55:14;;;;;;;4.65;2.72;;;6.20;99.90;;;;;;4992599;28;20233;-82
2021/03/17 00:57:41;;;;;;;4.97;3.00;;;6.20;99.90;;;;;;4988235;28;20233;-83
2021/03/17 01:00:10;;;;;;;6.50;3.90;;;6.10;99.90;;;;;;4997690;28;20637;-84
2021/03/17 01:02:37;;;;;;;4.40;2.78;;;6.10;99.90;;;;;;4996941;28;20304;-83
2021/03/17 01:05:04;;;;;;;5.40;3.08;;;6.20;99.90;;;;;;4995637;28;20561;-83
2021/03/17 01:07:31;;;;;;;5.45;3.25;;;6.40;99.90;;;;;;4994646;28;20694;-83
2021/03/17 01:09:57;;;;;;;6.88;3.95;;;6.20;99.90;;;;;;4994770;28;20271;-84
2021/03/17 01:12:24;;;;;;;7.85;3.63;;;6.60;99.90;;;;;;4994965;28;20291;-83
2021/03/17 01:14:50;;;;;;;6.18;2.95;;;6.30;99.90;;;;;;5002197;28;20228;-84
2021/03/17 01:17:16;;;;;;;6.38;3.67;;;6.40;99.90;;;;;;4995094;28;20295;-84
2021/03/17 01:19:43;;;;;;;5.45;3.35;;;6.40;99.90;;;;;;4994852;28;20296;-84
2021/03/17 01:22:09;;;;;;;5.50;3.53;;;6.30;99.90;;;;;;4994967;28;20294;-84
2021/03/17 01:24:37;;;;;;;6.25;4.00;;;6.10;99.90;;;;;;4991520;28;20316;-84
2021/03/17 01:27:04;;;;;;;5.35;3.30;;;6.20;99.90;;;;;;4975455;28;20212;-84
2021/03/17 01:29:30;;;;;;;6.88;4.22;;;6.10;99.90;;;;;;4981163;28;20894;-84
2021/03/17 01:31:56;;;;;;;6.70;4.28;;;6.00;99.90;;;;;;4994211;28;20658;-84
2021/03/17 01:34:23;;;;;;;6.53;4.20;;;6.00;99.90;;;;;;4994588;28;20311;-84
2021/03/17 01:36:49;;;;;;;5.63;3.70;;;5.90;99.90;;;;;;4995297;28;20289;-84
2021/03/17 01:39:15;;;;;;;5.28;3.92;;;6.10;99.90;;;;;;4998588;28;20295;-84
2021/03/17 01:41:43;;;;;;;7.78;4.00;;;6.10;99.90;;;;;;4990740;28;20214;-83
2021/03/17 01:44:09;;;;;;;5.82;3.28;;;6.30;99.90;;;;;;4986778;28;20229;-83
2021/03/17 01:46:35;;;;;;;5.68;3.58;;;6.40;99.90;;;;;;4997540;28;20212;-83
2021/03/17 01:49:02;;;;;;;5.25;3.42;;;6.20;99.90;;;;;;4999908;28;20207;-84
2021/03/17 01:51:28;;;;;;;5.40;3.85;;;6.10;99.90;;;;;;4981727;28;20229;-84
2021/03/17 01:53:55;;;;;;;5.97;3.30;;;6.20;99.90;;;;;;4985505;28;20311;-84
2021/03/17 01:56:22;;;;;;;6.38;3.60;;;6.30;99.90;;;;;;5000907;28;20252;-84
2021/03/17 01:58:50;;;;;;;5.40;3.25;;;6.30;99.90;;;;;;4994897;28;20252;-83
2021/03/17 02:01:16;;;;;;;5.90;3.60;;;6.00;99.90;;;;;;5011627;28;20204;-82
2021/03/17 02:03:43;;;;;;;5.53;3.53;;;6.00;99.90;;;;;;5014158;28;20244;-83
2021/03/17 02:06:09;;;;;;;5.25;3.53;;;5.90;99.90;;;;;;5004418;28;20683;-83
2021/03/17 02:08:37;;;;;;;5.30;3.10;;;6.00;99.90;;;;;;5005871;28;20286;-83
2021/03/17 02:11:05;;;;;;;5.55;3.22;;;6.00;99.90;;;;;;5000414;28;20260;-84
2021/03/17 02:13:45;;;;;;;5.78;3.83;;;6.00;99.90;;;;;;5006603;28;20212;-83
2021/03/17 02:16:19;;;;;;;6.72;4.25;;;6.10;99.90;;;;;;5012037;28;20254;-83
2021/03/17 02:18:57;;;;;;;4.97;3.65;;;6.20;99.90;;;;;;5018290;28;20212;-82
2021/03/17 02:21:59;;;;;;;6.00;3.80;;;6.10;99.90;;;;;;5014453;28;20216;-83
2021/03/17 02:24:30;;;;;;;7.05;4.15;;;5.90;99.90;;;;;;5018055;28;20271;-82
2021/03/17 02:27:26;;;;;;;7.60;4.50;;;5.80;99.90;;;;;;5017726;28;20212;-82
2021/03/17 02:30:28;;;;;;;6.65;4.40;;;5.80;99.90;;;;;;5018655;28;20221;-82
2021/03/17 02:33:26;;;;;;;7.35;4.35;;;6.10;99.90;;;;;;5010472;28;20208;-83
2021/03/17 02:35:59;;;;;;;6.15;4.10;;;6.10;99.90;;;;;;4997672;28;20224;-83
2021/03/17 02:38:28;;;;;;;5.78;3.35;;;5.90;99.90;;;;;;4985596;28;20245;-83
2021/03/17 02:40:59;;;;;;;8.50;3.85;;;6.30;99.90;;;;;;4980618;28;20233;-83
2021/03/17 02:43:30;;;;;;;6.90;3.60;;;6.40;99.90;;;;;;4996077;28;20235;-83
2021/03/17 02:46:02;;;;;;;6.00;3.90;;;6.00;99.90;;;;;;4999762;28;20239;-83
2021/03/17 02:48:31;;;;;;;6.38;3.55;;;6.00;99.90;;;;;;5000815;28;20311;-83
2021/03/17 02:51:02;;;;;;;7.65;3.95;;;6.00;99.90;;;;;;5001117;28;20260;-83
2021/03/17 02:53:32;;;;;;;5.10;3.30;;;6.10;99.90;;;;;;4999589;28;20274;-82
2021/03/17 02:56:03;;;;;;;9.20;3.70;;;6.20;99.90;;;;;;4993886;28;20491;-83
2021/03/17 02:58:30;;;;;;;5.18;3.10;;;6.10;99.90;;;;;;4999836;28;20271;-83
2021/03/17 03:00:59;;;;;;;4.30;2.83;;;6.00;99.90;;;;;;5000759;28;20205;-83
2021/03/17 03:03:29;;;;;;;8.75;3.80;;;6.30;99.90;;;;;;5003634;28;20236;-83
2021/03/17 03:05:56;;;;;;;4.50;2.90;;;6.10;99.90;;;;;;5002514;28;20251;-84
2021/03/17 03:08:25;;;;;;;4.43;2.50;;;6.40;99.90;;;;;;5009523;28;20208;-83
2021/03/17 03:10:53;;;;;;;4.78;2.65;;;6.00;99.90;;;;;;5018530;28;20228;-83
2021/03/17 03:16:43;;;;;;;7.57;3.17;;;5.60;99.90;;;;;;4995252;28;20192;-83
2021/03/17 03:19:11;;;;;;;4.78;3.03;;;5.70;99.90;;;;;;4993726;28;20659;-83
2021/03/17 03:21:38;;;;;;;5.05;3.05;;;5.50;99.90;;;;;;5000834;28;20201;-84
2021/03/17 03:24:07;;;;;;;4.53;2.72;;;5.80;99.90;;;;;;4999157;28;20282;-83
2021/03/17 03:26:35;;;;;;;4.93;3.10;;;5.70;99.90;;;;;;4985763;28;20205;-84
2021/03/17 03:29:04;;;;;;;3.92;2.20;;;5.90;99.90;;;;;;4982572;28;20553;-83
2021/03/17 03:31:30;;;;;;;5.00;2.92;;;5.90;99.90;;;;;;4997357;28;20244;-84
2021/03/17 03:33:57;;;;;;;5.40;3.22;;;6.00;99.90;;;;;;4999989;28;20224;-84
2021/03/17 03:36:26;;;;;;;4.68;2.60;;;6.10;99.90;;;;;;4980852;28;20211;-83
2021/03/17 03:38:52;;;;;;;4.55;2.55;;;6.00;99.90;;;;;;4993597;28;20231;-83
2021/03/17 03:41:19;;;;;;;4.30;2.80;;;5.80;99.90;;;;;;4992878;28;20737;-83
2021/03/17 03:43:46;;;;;;;5.50;2.70;;;5.80;99.90;;;;;;4993687;28;20324;-83
2021/03/17 03:46:12;;;;;;;5.28;2.97;;;5.90;99.90;;;;;;4995857;28;20197;-83
2021/03/17 03:48:38;;;;;;;4.32;2.90;;;6.00;99.90;;;;;;4987363;28;20578;-84
2021/03/17 03:51:05;;;;;;;5.50;2.92;;;5.80;99.90;;;;;;4984883;28;20231;-83
2021/03/17 03:53:47;;;;;;;5.10;3.10;;;5.70;99.90;;;;;;4989620;28;20239;-83
2021/03/17 03:56:17;;;;;;;4.40;2.75;;;5.50;99.90;;;;;;5002557;28;20208;-83
2021/03/17 03:58:49;;;;;;;7.80;5.03;;;5.70;99.90;;;;;;4995234;28;20511;-84
2021/03/17 04:01:21;;;;;;;5.20;3.00;;;5.50;99.90;;;;;;5000936;28;20229;-84
2021/03/17 04:03:53;;;;;;;5.70;3.65;;;5.50;99.90;;;;;;4996374;28;20795;-84
2021/03/17 04:06:19;;;;;;;7.85;4.05;;;5.60;99.90;;;;;;4983735;28;20799;-84
2021/03/17 04:08:47;;;;;;;5.38;4.03;;;5.70;99.90;;;;;;4981023;28;20255;-84
2021/03/17 04:11:16;;;;;;;6.28;3.80;;;5.50;99.90;;;;;;4995928;28;20311;-84
2021/03/17 04:13:44;;;;;;;8.57;4.15;;;5.40;99.90;;;;;;4996417;28;20270;-84
2021/03/17 04:16:14;;;;;;;5.50;3.30;;;5.70;99.90;;;;;;4996520;28;20244;-84
2021/03/17 04:18:44;;;;;;;7.05;3.60;;;5.70;99.90;;;;;;4996824;28;20209;-84
2021/03/17 04:21:17;;;;;;;10.07;4.47;;;5.70;99.90;;;;;;4999312;28;20213;-84
2021/03/17 04:23:46;;;;;;;6.57;4.40;;;5.80;99.90;;;;;;5000133;28;20284;-84
2021/03/17 04:26:14;;;;;;;7.70;3.95;;;5.80;99.90;;;;;;4991535;28;20209;-84
2021/03/17 04:28:43;;;;;;;6.70;4.45;;;5.70;99.90;;;;;;5004362;28;20209;-84
2021/03/17 04:31:11;;;;;;;7.90;4.65;;;5.70;99.90;;;;;;5009144;28;20243;-84
2021/03/17 04:33:39;;;;;;;7.38;4.57;;;5.60;99.90;;;;;;5002827;28;20259;-84
2021/03/17 04:36:07;;;;;;;8.10;4.85;;;5.70;99.90;;;;;;4999298;28;20553;-83
2021/03/17 04:38:36;;;;;;;8.70;4.85;;;5.70;99.90;;;;;;4999438;28;20263;-84
2021/03/17 04:41:03;;;;;;;9.18;5.10;;;5.60;99.90;;;;;;4999498;28;20232;-83
2021/03/17 04:43:30;;;;;;;13.40;6.30;;;5.50;99.90;;;;;;5000105;28;20232;-84
2021/03/17 04:45:59;;;;;;;9.43;5.25;;;5.90;99.90;;;;;;5003267;28;20279;-82
2021/03/17 04:48:27;;;;;;;9.95;5.75;;;5.90;99.90;;;;;;5005148;28;20200;-83
2021/03/17 04:50:54;;;;;;;14.90;6.55;;;5.70;99.90;;;;;;5002445;28;20236;-84
2021/03/17 04:53:22;;;;;;;7.57;5.00;;;5.70;99.90;;;;;;4996296;28;20299;-84
2021/03/17 04:55:48;;;;;;;7.38;4.95;;;5.80;99.90;;;;;;4988888;28;20204;-84
2021/03/17 04:58:17;;;;;;;9.65;6.50;;;5.80;99.90;;;;;;4977638;28;20313;-84
2021/03/17 05:00:46;;;;;;;10.32;6.13;;;5.60;99.90;;;;;;4980505;28;20506;-84
2021/03/17 05:03:16;;;;;;;7.28;5.30;;;5.60;99.90;;;;;;4988437;28;20209;-84
2021/03/17 05:05:45;;;;;;;11.13;6.20;;;5.60;99.90;;;;;;4993874;28;20293;-84
2021/03/17 05:08:12;;;;;;;8.00;6.03;;;5.70;99.90;;;;;;4980149;28;20232;-84
2021/03/17 05:10:40;;;;;;;10.55;6.55;;;5.90;99.90;;;;;;4991385;28;20240;-83
2021/03/17 05:13:09;;;;;;;11.38;6.65;;;5.70;99.90;;;;;;5013901;28;20227;-83
2021/03/17 05:15:36;;;;;;;10.60;7.22;;;5.80;99.90;;;;;;5004159;28;20205;-82
2021/03/17 05:18:04;;;;;;;10.68;7.70;;;5.70;99.90;;;;;;5013834;28;20200;-82
2021/03/17 05:20:31;;;;;;;9.68;6.03;;;5.70;99.90;;;;;;5007771;28;20197;-83
2021/03/17 05:22:59;;;;;;;9.90;7.00;;;5.50;99.90;;;;;;5000911;28;20208;-82
2021/03/17 05:25:27;;;;;;;11.90;8.30;;;5.70;99.90;;;;;;4998398;28;20780;-83
2021/03/17 05:27:55;;;;;;;14.30;6.80;;;5.70;99.90;;;;;;5013434;28;20207;-83
2021/03/17 05:30:24;;;;;;;9.27;7.18;;;5.70;99.90;;;;;;5021189;28;20243;-83
2021/03/17 05:32:52;;;;;;;9.13;6.50;;;5.60;99.90;;;;;;5030892;28;20212;-82
2021/03/17 05:35:19;;;;;;;11.98;7.97;;;5.70;99.90;;;;;;5017415;28;20244;-83
2021/03/17 05:37:46;;;;;;;10.60;7.47;;;5.70;99.90;;;;;;5004643;28;20283;-83
2021/03/17 05:40:16;;;;;;;12.30;8.52;;;5.70;99.90;;;;;;5014162;28;20248;-82
2021/03/17 05:42:44;;;;;;;14.95;8.07;;;5.60;99.90;;;;;;5018394;28;20283;-82
2021/03/17 05:45:13;;;;;;;12.00;8.55;;;5.80;99.90;;;;;;5007939;28;20262;-83
2021/03/17 05:47:40;;;;;;;11.25;7.88;;;5.60;99.90;;;;;;5004543;28;20291;-82
2021/03/17 05:50:08;;;;;;;13.07;8.70;;;5.80;99.90;;;;;;5004912;28;20608;-83
2021/03/17 05:52:35;;;;;;;13.43;8.45;;;5.80;99.90;;;;;;5002390;28;20208;-83
2021/03/17 05:55:01;;;;;;;11.85;8.63;;;5.80;99.90;;;;;;4995900;28;20235;-83
2021/03/17 05:57:30;;;;;;;13.07;9.85;;;5.70;99.90;;;;;;4998094;28;20291;-83
2021/03/17 05:59:56;;;;;;;14.68;9.90;;;5.80;99.90;;;;;;4993549;28;20212;-84
2021/03/17 06:02:23;;;;;;;15.68;9.70;;;5.90;99.90;;;;;;5007833;28;20232;-82
2021/03/17 06:04:50;;;;;;;14.05;9.50;;;5.70;99.90;;;;;;5000668;28;20213;-85
2021/03/17 06:07:22;;;;;;;15.52;10.88;;;6.00;99.90;;;;;;4989002;28;20200;-83
2021/03/17 06:09:49;;;;;;;14.25;10.32;;;5.70;99.90;;;;;;4998944;28;20225;-83
2021/03/17 06:12:17;;;;;;;18.08;11.60;;;5.50;99.90;;;;;;5009373;28;20239;-83
2021/03/17 06:14:48;;;;;;;15.50;9.55;;;5.70;99.90;;;;;;5016342;28;20280;-83
2021/03/17 06:17:19;;;;;;;16.95;10.45;;;5.50;99.90;;;;;;5016824;28;20189;-83
2021/03/17 06:19:49;;;;;;;16.25;10.23;;;5.80;99.90;;;;;;4988472;28;20296;-84
2021/03/17 06:22:16;;;;;;;16.20;10.60;;;5.70;99.90;;;;;;4987768;28;20204;-84
2021/03/17 06:24:43;;;;;;;14.43;10.13;;;5.60;99.90;;;;;;5037629;23;20317;-83
2021/03/17 06:27:12;;;;;;;16.70;11.38;;;5.50;99.90;;;;;;5006755;28;20737;-83
2021/03/17 06:29:39;;;;;;;16.50;10.93;;;5.40;99.90;;;;;;5012166;28;20239;-83
2021/03/17 06:32:09;;;;;;;14.95;11.00;;;5.40;99.90;;;;;;5007982;28;20284;-85
2021/03/17 06:34:35;;;;;;;16.45;10.55;;;5.50;99.90;;;;;;5004862;28;20205;-85
2021/03/17 06:37:02;;;;;;;14.13;9.98;;;5.60;99.90;;;;;;5018340;28;20201;-83
2021/03/17 06:39:35;;;;;;;18.25;10.63;;;5.60;99.90;;;;;;5006165;28;20248;-86
2021/03/17 06:42:02;;;;;;;15.90;11.43;;;5.70;99.90;;;;;;5019425;28;20208;-84
2021/03/17 06:44:29;;;;;;;19.98;12.40;;;5.60;99.90;;;;;;5019443;28;20208;-86
2021/03/17 06:47:18;;;;;;;23.08;9.48;;;5.60;99.90;;;;;;5019327;28;20199;-83
2021/03/17 06:49:46;;;;;;;14.98;10.75;;;5.80;99.90;;;;;;5023204;28;20211;-85
2021/03/17 06:52:29;;;;;;;19.08;11.70;;;5.60;99.90;;;;;;5018497;28;20207;-87
2021/03/17 06:55:11;;;;;;;18.48;11.52;;;5.80;99.90;;;;;;5019841;28;20720;-85
2021/03/17 06:57:38;;;;;;;14.13;5.90;;;5.50;99.90;;;;;;5002812;28;20219;-85
2021/03/17 07:00:27;;;;;;;13.02;7.93;;;5.30;99.90;;;;;;5011707;28;20235;-85
2021/03/17 07:02:56;;;;;;;16.83;10.93;;;5.20;99.90;;;;;;5010508;28;20208;-85
2021/03/17 07:05:31;;;;;;;29.20;11.32;;;5.10;99.90;;;;;;5012100;28;20248;-86
2021/03/17 07:07:59;;;;;;;22.13;12.85;;;5.60;99.90;;;;;;5003811;28;20192;-83
2021/03/17 07:10:41;;;;;;;16.83;10.60;;;5.70;99.90;;;;;;5005532;28;20267;-87
2021/03/17 07:13:10;;;;;;;19.10;10.68;;;5.60;99.90;;;;;;5017928;28;20222;-82
2021/03/17 07:15:38;;;;;;;21.55;11.05;;;5.60;99.90;;;;;;5013961;28;20252;-86
2021/03/17 07:18:23;;;;;;;15.80;11.00;;;5.80;99.90;;;;;;5013565;28;20205;-83
2021/03/17 07:20:51;;;;;;;15.77;9.60;;;5.70;99.90;;;;;;5012650;28;20625;-86
2021/03/17 07:23:22;;;;;;;15.60;9.48;;;5.60;99.90;;;;;;5003515;28;20271;-84
2021/03/17 07:26:22;;;;;;;16.40;10.70;;;5.60;99.90;;;;;;4996889;28;20317;-87
2021/03/17 07:29:11;;;;;;;13.40;8.85;;;5.60;99.90;;;;;;4956345;29;20210;-86
2021/03/17 07:31:41;;;;;;;15.07;9.63;;;5.70;99.90;;;;;;4994806;28;20267;-84
2021/03/17 07:34:11;;;;;;;12.60;8.95;;;5.90;99.90;;;;;;5000396;28;20621;-87
2021/03/17 07:36:41;;;;;;;13.70;9.80;;;5.70;99.90;;;;;;5017153;28;20231;-87
2021/03/17 07:39:13;;;;;;;13.13;9.10;;;5.90;99.90;;;;;;5008098;28;20686;-85
2021/03/17 07:41:40;;;;;;;14.45;9.40;;;6.20;99.90;;;;;;5000213;28;20196;-86
2021/03/17 07:44:09;;;;;;;11.30;8.57;;;6.30;99.90;;;;;;5007144;28;20725;-85
2021/03/17 07:46:37;;;;;;;15.48;9.80;;;6.50;99.90;;;;;;5014577;28;20233;-85
2021/03/17 07:49:06;;;;;;;13.30;9.13;;;6.50;99.90;;;;;;5016733;28;20204;-85
2021/03/17 07:51:35;;;;;;;16.80;9.48;;;6.40;99.90;;;;;;5006856;28;20758;-86
2021/03/17 07:54:03;;;;;;;15.13;8.60;;;6.60;99.90;;;;;;4998757;28;20213;-83
2021/03/17 07:56:30;;;;;;;14.98;8.55;;;6.60;99.90;;;;;;5001341;28;20599;-85
2021/03/17 07:58:57;;;;;;;16.95;9.70;;;6.60;99.90;;;;;;4999734;28;20213;-87
2021/03/17 08:01:24;;;;;;;11.88;7.40;;;6.60;99.90;;;;;;5006912;28;20223;-84
2021/03/17 08:03:51;;;;;;;14.68;9.30;;;6.30;99.90;;;;;;5021117;28;20212;-84
2021/03/17 08:06:19;;;;;;;15.18;9.07;;;6.30;99.90;;;;;;5012715;28;20228;-78
2021/03/17 08:08:48;;;;;;;9.95;6.15;;;6.50;99.90;;;;;;5018223;28;20231;-78
2021/03/17 08:11:16;;;;;;;6.72;3.83;;;6.20;99.90;;;;;;5010097;28;20224;-79
2021/03/17 08:13:45;;;;;;;7.82;2.95;;;6.50;99.90;;;;;;5006647;28;20283;-82
2021/03/17 08:16:13;;;;;;;6.88;3.22;;;6.40;99.90;;;;;;4999136;28;20769;-81
2021/03/17 08:18:48;;;;;;;5.65;3.08;;;6.50;99.90;;;;;;4996892;28;20204;-81
2021/03/17 08:21:15;;;;;;;6.07;3.58;;;6.70;99.90;;;;;;4999117;28;20660;-81
2021/03/17 08:23:44;;;;;;;8.50;4.35;;;6.90;99.90;;;;;;5000625;28;20311;-79
2021/03/17 08:26:13;;;;;;;10.52;5.07;;;6.60;99.90;;;;;;5023603;28;20236;-79
2021/03/17 08:28:50;;;;;;;6.72;4.22;;;6.80;99.90;;;;;;5022928;28;20323;-81
2021/03/17 08:31:48;;;;;;;10.38;6.40;;;6.70;99.90;;;;;;5029778;28;20250;-77
2021/03/17 08:34:25;;;;;;;8.77;4.50;;;6.70;99.90;;;;;;4992884;28;20208;-82
2021/03/17 08:36:54;;;;;;;14.85;5.95;;;7.00;99.90;;;;;;5018163;28;20264;-82
2021/03/17 08:39:46;;;;;;;9.93;6.00;;;6.90;99.90;;;;;;5027884;28;20219;-80
2021/03/17 08:42:25;;;;;;;11.27;7.15;;;6.60;99.90;;;;;;4984095;28;20209;-80
2021/03/17 08:44:52;;;;;;;12.90;7.18;;;7.00;99.90;;;;;;4998014;28;20220;-84
2021/03/17 08:47:22;;;;;;;16.05;7.90;;;7.00;99.90;;;;;;5016967;28;20260;-79
2021/03/17 08:49:50;;;;;;;13.38;6.43;;;6.80;99.90;;;;;;5015749;28;20240;-82
2021/03/17 08:52:18;;;;;;;12.40;7.13;;;6.80;99.90;;;;;;5005385;28;20410;-79
2021/03/17 08:55:14;;;;;;;7.03;3.83;;;6.70;99.90;;;;;;5008627;28;20255;-79
2021/03/17 08:58:21;;;;;;;9.55;6.53;;;6.90;99.90;;;;;;5022698;28;20208;-80
2021/03/17 09:00:53;;;;;;;13.30;6.93;;;7.00;99.90;;;;;;5022657;28;20276;-79
2021/03/17 09:03:40;;;;;;;9.85;7.35;;;7.00;99.90;;;;;;5017319;28;20213;-80
2021/03/17 09:06:09;;;;;;;11.88;8.32;;;7.50;99.90;;;;;;5007229;28;20270;-80
2021/03/17 09:08:51;;;;;;;10.23;6.35;;;7.20;99.90;;;;;;5016683;28;20212;-81
2021/03/17 09:11:59;;;;;;;10.40;5.00;;;7.60;99.90;;;;;;5001544;28;20238;-80
2021/03/17 09:14:30;;;;;;;8.88;5.50;;;7.70;99.90;;;;;;4995143;28;20841;-80
2021/03/17 09:17:32;;;;;;;12.45;6.10;;;7.40;99.90;;;;;;4999871;28;20247;-80
2021/03/17 09:20:24;;;;;;;10.48;5.70;;;7.50;99.90;;;;;;5007784;28;20273;-81
2021/03/17 09:23:05;;;;;;;10.75;5.40;;;7.50;99.90;;;;;;5002089;28;20189;-80
2021/03/17 09:25:36;;;;;;;8.95;5.97;;;7.50;99.90;;;;;;5020708;28;20236;-88
2021/03/17 09:28:06;;;;;;;8.60;4.10;;;7.90;99.90;;;;;;5021312;28;20301;-86
2021/03/17 09:30:39;;;;;;;9.10;5.03;;;7.30;99.90;;;;;;5022798;28;20235;-88
2021/03/17 09:33:15;;;;;;;7.63;4.68;;;7.60;99.90;;;;;;5024426;28;20206;-88
2021/03/17 09:35:53;;;;;;;7.85;4.63;;;7.60;99.90;;;;;;5022607;28;20219;-86
2021/03/17 09:38:22;;;;;;;9.50;4.47;;;7.60;99.90;;;;;;5021544;28;20231;-88
2021/03/17 09:40:56;;;;;;;7.18;4.10;;;7.70;99.90;;;;;;5014272;28;20223;-88
2021/03/17 09:43:50;;;;;;;8.32;4.45;;;7.70;99.90;;;;;;5008325;28;20243;-86
2021/03/17 09:46:40;;;;;;;6.10;3.60;;;7.90;99.90;;;;;;5007020;28;20219;-86
2021/03/17 09:49:11;;;;;;;8.57;3.97;;;7.90;99.90;;;;;;5008221;28;20747;-87
2021/03/17 09:51:49;;;;;;;7.97;4.57;;;8.00;99.90;;;;;;5004591;28;20233;-86
2021/03/17 09:54:18;;;;;;;6.63;3.83;;;8.20;99.90;;;;;;5009223;28;20196;-83
2021/03/17 09:56:50;;;;;;;5.97;3.40;;;7.90;99.90;;;;;;5011124;28;20216;-85
2021/03/17 09:59:22;;;;;;;9.98;4.18;;;7.80;99.90;;;;;;5011325;28;20216;-87
2021/03/17 10:02:01;;;;;;;5.30;3.00;;;7.60;99.90;;;;;;5011356;28;20179;-85
2021/03/17 10:04:29;;;;;;;11.40;4.85;;;7.80;99.90;;;;;;5019313;28;20192;-86
2021/03/17 10:06:57;;;;;;;7.45;3.65;;;7.70;99.90;;;;;;5027703;28;20390;-87
2021/03/17 10:09:26;;;;;;;5.97;3.83;;;7.80;99.90;;;;;;5032129;28;20193;-88
2021/03/17 10:12:00;;;;;;;6.07;3.70;;;7.70;99.90;;;;;;5031264;28;20235;-86
2021/03/17 10:14:28;;;;;;;9.88;3.90;;;8.20;99.80;;;;;;5025427;28;20679;-86
2021/03/17 10:17:10;;;;;;;5.30;3.30;;;8.00;99.90;;;;;;5021458;28;20240;-85
2021/03/17 10:19:38;;;;;;;10.10;3.50;;;8.20;99.40;;;;;;5020202;28;20258;-88
2021/03/17 10:22:17;;;;;;;5.32;3.17;;;7.70;99.90;;;;;;5002459;28;20240;-88
2021/03/17 10:28:04;;;;;;;5.50;2.92;;;8.20;99.90;;;;;;5007955;28;20584;-85
2021/03/17 10:30:47;;;;;;;6.32;3.67;;;8.30;99.90;;;;;;5000395;28;20228;-85
2021/03/17 10:33:51;;;;;;;14.43;6.90;;;8.20;99.90;;;;;;5001911;28;20212;-88
2021/03/17 10:36:22;;;;;;;7.15;4.00;;;8.20;99.80;;;;;;4965687;28;20241;-84
2021/03/17 10:39:00;;;;;;;7.97;4.50;;;8.40;99.50;;;;;;5002240;28;20216;-88
2021/03/17 10:42:07;;;;;;;6.38;3.35;;;8.40;99.80;;;;;;5005048;28;20215;-86
2021/03/17 10:44:33;;;;;;;7.65;3.38;;;8.50;98.80;;;;;;5023866;28;20303;-83
2021/03/17 10:47:06;;;;;;;6.03;3.20;;;8.30;98.30;;;;;;5023747;28;20227;-86
2021/03/17 10:49:36;;;;;;;7.00;3.60;;;8.20;98.80;;;;;;5022274;28;20276;-86
2021/03/17 10:52:03;;;;;;;7.22;3.58;;;8.20;99.30;;;;;;5005723;28;20263;-87
2021/03/17 10:54:34;;;;;;;9.45;3.95;;;8.40;99.50;;;;;;5004000;28;20224;-88
2021/03/17 10:57:02;;;;;;;6.88;3.35;;;8.40;98.90;;;;;;5005751;28;20232;-84
2021/03/17 10:59:31;;;;;;;5.45;2.75;;;8.70;98.70;;;;;;5005051;28;20209;-89
2021/03/17 11:02:31;;;;;;;6.93;3.75;;;9.20;97.20;;;;;;5007518;28;20854;-88
2021/03/17 11:09:23;;;;;;;6.88;4.03;;;8.70;98.20;;;;;;4963117;29;20202;-86
2021/03/17 11:25:55;;;;;;;6.72;4.15;;;7.40;99.90;;;;;;4875508;29;20303;-79
2021/03/17 11:28:23;;;;;;;8.23;4.03;;;7.50;99.90;;;;;;4981264;28;20205;-83
2021/03/17 11:34:51;;;;;;;6.85;3.83;;;7.70;99.90;;;;;;5003952;28;20204;-82
2021/03/17 11:37:20;;;;;;;6.10;3.55;;;7.60;99.90;;;;;;5009921;28;20204;-82
2021/03/17 11:39:46;;;;;;;9.88;4.55;;;7.60;99.90;;;;;;5016314;28;20220;-80
2021/03/17 11:42:14;;;;;;;9.48;4.10;;;7.60;99.90;;;;;;5003467;28;20292;-79
2021/03/17 11:44:40;;;;;;;7.32;4.13;;;7.60;99.90;;;;;;4998579;28;20227;-80
2021/03/17 11:47:07;;;;;;;6.80;4.10;;;7.40;99.90;;;;;;4998553;28;20260;-83
2021/03/17 11:49:33;;;;;;;7.13;3.53;;;7.40;99.90;;;;;;4997210;28;20235;-81
2021/03/17 11:52:00;;;;;;;6.10;2.72;;;7.20;99.90;;;;;;5012628;28;20689;-84
2021/03/17 11:54:26;;;;;;;9.95;4.75;;;7.00;99.90;;;;;;5020186;28;20563;-81
2021/03/17 11:56:53;;;;;;;4.53;2.47;;;6.80;99.90;;;;;;5021596;28;20275;-84
2021/03/17 11:59:21;;;;;;;9.27;4.88;;;6.40;99.90;;;;;;5015935;28;20295;-85
2021/03/17 12:01:47;;;;;;;16.52;6.72;;;6.30;99.90;;;;;;5001643;28;20725;-83
2021/03/17 12:04:14;;;;;;;8.45;5.55;;;5.90;99.90;;;;;;5012612;28;20201;-83
2021/03/17 12:06:41;;;;;;;11.00;6.00;;;5.80;99.90;;;;;;5001557;28;20220;-82
2021/03/17 12:09:08;;;;;;;11.43;5.78;;;5.90;99.90;;;;;;5002046;28;20307;-84
2021/03/17 12:11:38;;;;;;;9.77;5.35;;;6.00;99.90;;;;;;5002602;28;20243;-88
2021/03/17 12:14:05;;;;;;;15.98;8.48;;;5.80;99.90;;;;;;5002741;28;20205;-85
2021/03/17 12:16:35;;;;;;;10.43;5.60;;;5.90;99.90;;;;;;5007989;28;20817;-84
2021/03/17 12:19:07;;;;;;;11.70;7.32;;;6.10;99.90;;;;;;5011081;28;20200;-84
2021/03/17 12:21:34;;;;;;;14.30;8.50;;;5.90;99.90;;;;;;4999862;28;20196;-85
2021/03/17 12:24:01;;;;;;;14.85;6.25;;;6.00;99.90;;;;;;5030211;28;20294;-84
2021/03/17 12:26:27;;;;;;;15.95;9.20;;;5.90;99.90;;;;;;5032354;28;20224;-82
2021/03/17 12:28:54;;;;;;;13.27;8.10;;;5.70;99.90;;;;;;5032171;28;20208;-84
2021/03/17 12:31:20;;;;;;;14.90;8.05;;;5.60;99.90;;;;;;5027812;28;20235;-85
2021/03/17 12:33:48;;;;;;;10.95;6.25;;;5.70;99.90;;;;;;5035019;28;20215;-84
2021/03/17 12:36:22;;;;;;;14.13;7.65;;;5.60;99.90;;;;;;5034687;28;20215;-83
2021/03/17 12:39:00;;;;;;;8.55;4.03;;;5.60;99.90;;;;;;5034345;28;20223;-85
2021/03/17 12:41:26;;;;;;;22.92;7.32;;;4.80;99.90;;;;;;5020760;28;20295;-83
2021/03/17 12:43:53;;;;;;;13.40;6.53;;;5.30;99.90;;;;;;5020782;28;20204;-85
2021/03/17 12:46:19;;;;;;;9.88;5.75;;;5.30;99.90;;;;;;5020615;28;20228;-84
2021/03/17 12:48:47;;;;;;;9.95;6.85;;;5.40;99.90;;;;;;5017892;28;20235;-86
2021/03/17 12:51:13;;;;;;;9.77;7.00;;;5.20;99.90;;;;;;5017272;28;20232;-87
2021/03/17 12:53:40;;;;;;;14.00;7.18;;;5.00;99.90;;;;;;5017902;28;20211;-83
2021/03/17 12:56:11;;;;;;;13.73;8.10;;;5.30;99.90;;;;;;5016838;28;20690;-82
2021/03/17 12:58:41;;;;;;;11.23;7.35;;;5.30;99.90;;;;;;5008198;28;20197;-85
2021/03/17 13:03:43;;;;;;;14.50;7.68;;;5.20;99.90;;;;;;4997240;28;20223;-85
2021/03/17 13:06:11;;;;;;;12.10;7.03;;;5.40;99.90;;;;;;5000901;28;20218;-83
2021/03/17 13:08:38;;;;;;;9.90;5.80;;;5.20;99.90;;;;;;4998442;28;20676;-84
2021/03/17 13:11:04;;;;;;;11.07;6.50;;;5.50;99.90;;;;;;4997808;28;20259;-85
2021/03/17 13:13:34;;;;;;;11.05;6.28;;;5.40;99.90;;;;;;4976244;28;20657;-86
2021/03/17 13:16:00;;;;;;;13.27;7.15;;;5.60;99.90;;;;;;4978691;28;20209;-86
2021/03/17 13:18:30;;;;;;;9.55;6.15;;;5.30;99.90;;;;;;4976268;28;20261;-85
2021/03/17 13:20:56;;;;;;;9.98;6.35;;;5.50;99.90;;;;;;4977732;28;20225;-85
2021/03/17 13:23:23;;;;;;;10.82;6.38;;;5.70;99.90;;;;;;4977332;28;20225;-87
2021/03/17 13:25:50;;;;;;;9.15;6.15;;;5.70;99.90;;;;;;4976105;28;20229;-85
2021/03/17 13:28:19;;;;;;;9.10;6.03;;;5.70;99.90;;;;;;4977766;28;20217;-85
2021/03/17 13:30:48;;;;;;;10.80;7.40;;;5.90;99.90;;;;;;4978684;28;20213;-86
2021/03/17 13:33:14;;;;;;;14.73;9.27;;;5.90;99.90;;;;;;4978738;28;20311;-86
2021/03/17 13:35:41;;;;;;;9.07;5.95;;;5.90;99.90;;;;;;4978782;28;20243;-86
2021/03/17 13:38:09;;;;;;;10.68;6.50;;;6.10;99.90;;;;;;4978606;28;20346;-85
2021/03/17 13:40:37;;;;;;;10.35;7.28;;;5.90;99.90;;;;;;4979221;28;20268;-86
2021/03/17 13:43:04;;;;;;;11.45;6.57;;;5.90;99.90;;;;;;4981792;28;20221;-84